Etusivu
METAR-TAF:

METAR-TAF

Lentoasemat :

Gaya, Intia

Leveyspiiri: 24-44-40N, Pituuspiiri: 84-57-04E, korkeus merenpinnasta: 116 m

Tämänhetkinen sää

Tämä raportti tehtiin 51 minuuttia sitten, kello 14.00 UTC
Tuuli 4 kn idästä/kaakosta
Lämpötila 38°C
Kosteus 42%
Ilmanpaine 995 hPa
Näkyvyys: 4000 m
Hajanaisia pilviä 10000 ft:n korkeudessa
usvaa,

METAR: VEGY 191400Z 12004KT 4000 HZ SCT100 38/23 Q0995

Aika: 20:21 (14:51 UTC)

Sääennuste

Tämä raportti tehtiin 3 tuntia ja 51 minuuttia sitten, kello 11.00 UTC
Ennuste voimassa 19. päivästä klo 12 UTC - 19. päivään klo 21 UTC
Tuuli 8 kn luoteesta
Näkyvyys: 4000 m
Hajanaisia pilviä 2000 ft:n korkeudessa
Hajanaisia pilviä 10000 ft:n korkeudessa
usvaa
Tulossa
19. päivästä klo 19 UTC - 19. päivään klo 21 UTC
Tuuli 6 kn lännestä
Näkyvyys: 2500 m
usvaa,

TAF: VEGY 191100Z 1912/1921 32008KT 4000 HZ SCT020 SCT100 BECMG 1919/1921 26006KT 2500 HZ

Säähavainnot ja -ennusteet yli 4000 lentoasemalta (METAR- ja TAF-raportit).

Käytössä olevat sääasemat on merkitty karttaan keltaisilla ja punaisilla pisteillä.

Aseta hiiri pisteen päälle nähdäksesi sääaseman nimen.

Klikkaa sitten nähdäksesi säähavainnot ja -ennusteet.

Kartan vaihtaminen: klikkaa mustalla rastilla varustettuja vihreitä pisteitä, niin voit zoomata sisään; viivalla varustettua vihreää pistettä, niin voit zoomata ulos tai vihreitä nuolia, niin pääset viereisille kartoille.


METAR-TAF: